sensor_id;sensor_type;location;lat;lon;timestamp;pressure;altitude;pressure_sealevel;temperature;humidity
8705;BME280;4389;41.932;25.904;2024-02-26T00:02:31;-16304.13;;;8.85;100.00
8705;BME280;4389;41.932;25.904;2024-02-26T00:05:04;-16306.78;;;8.95;100.00
8705;BME280;4389;41.932;25.904;2024-02-26T00:07:31;-16306.38;;;8.93;100.00
8705;BME280;4389;41.932;25.904;2024-02-26T00:09:58;-16305.72;;;8.91;100.00
8705;BME280;4389;41.932;25.904;2024-02-26T00:12:25;-16305.19;;;8.89;100.00
8705;BME280;4389;41.932;25.904;2024-02-26T00:14:51;-16303.97;;;8.85;100.00
8705;BME280;4389;41.932;25.904;2024-02-26T00:17:19;-16301.84;;;8.77;100.00
8705;BME280;4389;41.932;25.904;2024-02-26T00:19:47;-16304.25;;;8.86;100.00
8705;BME280;4389;41.932;25.904;2024-02-26T00:22:14;-16302.13;;;8.78;100.00
8705;BME280;4389;41.932;25.904;2024-02-26T00:24:41;-16299.72;;;8.69;100.00
8705;BME280;4389;41.932;25.904;2024-02-26T00:27:08;-16301.59;;;8.76;100.00
8705;BME280;4389;41.932;25.904;2024-02-26T00:29:35;-16294.66;;;8.50;100.00
8705;BME280;4389;41.932;25.904;2024-02-26T00:32:00;-16296.25;;;8.56;100.00
8705;BME280;4389;41.932;25.904;2024-02-26T00:34:27;-16290.41;;;8.34;100.00
8705;BME280;4389;41.932;25.904;2024-02-26T00:36:55;-16290.41;;;8.34;100.00
8705;BME280;4389;41.932;25.904;2024-02-26T00:39:22;-16291.47;;;8.38;100.00
8705;BME280;4389;41.932;25.904;2024-02-26T00:41:49;-16292.81;;;8.43;100.00
8705;BME280;4389;41.932;25.904;2024-02-26T00:44:17;-16292.81;;;8.43;100.00
8705;BME280;4389;41.932;25.904;2024-02-26T00:46:43;-16296.25;;;8.56;100.00
8705;BME280;4389;41.932;25.904;2024-02-26T00:49:10;-16295.19;;;8.52;100.00
8705;BME280;4389;41.932;25.904;2024-02-26T00:51:37;-16294.94;;;8.51;100.00
8705;BME280;4389;41.932;25.904;2024-02-26T00:54:06;-16295.19;;;8.52;100.00
8705;BME280;4389;41.932;25.904;2024-02-26T00:56:32;-16298.13;;;8.63;100.00
8705;BME280;4389;41.932;25.904;2024-02-26T00:58:59;-16297.06;;;8.59;100.00
8705;BME280;4389;41.932;25.904;2024-02-26T01:01:26;-16293.34;;;8.45;100.00
8705;BME280;4389;41.932;25.904;2024-02-26T01:03:53;-16288.81;;;8.28;100.00
8705;BME280;4389;41.932;25.904;2024-02-26T01:06:20;-16288.81;;;8.28;100.00
8705;BME280;4389;41.932;25.904;2024-02-26T01:08:47;-16289.34;;;8.30;100.00
8705;BME280;4389;41.932;25.904;2024-02-26T01:11:15;-16287.75;;;8.24;100.00
8705;BME280;4389;41.932;25.904;2024-02-26T01:13:42;-16288.00;;;8.25;100.00
8705;BME280;4389;41.932;25.904;2024-02-26T01:16:09;-16289.06;;;8.29;100.00
8705;BME280;4389;41.932;25.904;2024-02-26T01:18:37;-16288.28;;;8.26;100.00
8705;BME280;4389;41.932;25.904;2024-02-26T01:21:04;-16287.88;;;8.24;100.00
8705;BME280;4389;41.932;25.904;2024-02-26T01:23:32;-16291.19;;;8.37;100.00
8705;BME280;4389;41.932;25.904;2024-02-26T01:25:59;-16291.59;;;8.38;100.00
8705;BME280;4389;41.932;25.904;2024-02-26T01:28:27;-16292.41;;;8.41;100.00
8705;BME280;4389;41.932;25.904;2024-02-26T01:30:54;-16291.34;;;8.37;100.00
8705;BME280;4389;41.932;25.904;2024-02-26T01:33:21;-16286.00;;;8.17;100.00
8705;BME280;4389;41.932;25.904;2024-02-26T01:35:48;-16287.75;;;8.24;100.00
8705;BME280;4389;41.932;25.904;2024-02-26T01:38:15;-16287.47;;;8.23;100.00
8705;BME280;4389;41.932;25.904;2024-02-26T01:40:41;-16286.13;;;8.18;100.00
8705;BME280;4389;41.932;25.904;2024-02-26T01:43:08;-16283.22;;;8.07;100.00
8705;BME280;4389;41.932;25.904;2024-02-26T01:45:36;-16282.69;;;8.05;100.00
8705;BME280;4389;41.932;25.904;2024-02-26T01:48:04;-16285.59;;;8.16;100.00
8705;BME280;4389;41.932;25.904;2024-02-26T01:50:31;-16284.41;;;8.11;100.00
8705;BME280;4389;41.932;25.904;2024-02-26T01:53:00;-16284.28;;;8.11;100.00
8705;BME280;4389;41.932;25.904;2024-02-26T01:55:27;-16280.94;;;7.98;100.00
8705;BME280;4389;41.932;25.904;2024-02-26T01:57:54;-16274.69;;;7.75;100.00
8705;BME280;4389;41.932;25.904;2024-02-26T02:00:22;-16277.22;;;7.84;100.00
8705;BME280;4389;41.932;25.904;2024-02-26T02:02:53;-16278.69;;;7.90;100.00
8705;BME280;4389;41.932;25.904;2024-02-26T02:05:21;-16277.09;;;7.84;100.00
8705;BME280;4389;41.932;25.904;2024-02-26T02:07:48;-16272.69;;;7.67;100.00
8705;BME280;4389;41.932;25.904;2024-02-26T02:10:17;-16274.69;;;7.75;100.00
8705;BME280;4389;41.932;25.904;2024-02-26T02:12:48;-16274.28;;;7.73;100.00
8705;BME280;4389;41.932;25.904;2024-02-26T02:15:15;-16274.41;;;7.74;100.00
8705;BME280;4389;41.932;25.904;2024-02-26T02:17:42;-16277.22;;;7.84;100.00
8705;BME280;4389;41.932;25.904;2024-02-26T02:20:15;-16279.75;;;7.94;100.00
8705;BME280;4389;41.932;25.904;2024-02-26T02:22:44;-16279.22;;;7.92;100.00
8705;BME280;4389;41.932;25.904;2024-02-26T02:25:11;-16277.22;;;7.84;100.00
8705;BME280;4389;41.932;25.904;2024-02-26T02:27:38;-16279.22;;;7.92;100.00
8705;BME280;4389;41.932;25.904;2024-02-26T02:30:06;-16279.22;;;7.92;100.00
8705;BME280;4389;41.932;25.904;2024-02-26T02:32:34;-16279.75;;;7.94;100.00
8705;BME280;4389;41.932;25.904;2024-02-26T02:35:02;-16279.22;;;7.92;100.00
8705;BME280;4389;41.932;25.904;2024-02-26T02:37:29;-16280.00;;;7.95;100.00
8705;BME280;4389;41.932;25.904;2024-02-26T02:39:57;-16274.94;;;7.76;100.00
8705;BME280;4389;41.932;25.904;2024-02-26T02:42:24;-16275.22;;;7.77;100.00
8705;BME280;4389;41.932;25.904;2024-02-26T02:44:51;-16275.09;;;7.76;100.00
8705;BME280;4389;41.932;25.904;2024-02-26T02:47:18;-16276.03;;;7.80;100.00
8705;BME280;4389;41.932;25.904;2024-02-26T02:49:45;-16278.16;;;7.88;100.00
8705;BME280;4389;41.932;25.904;2024-02-26T02:52:12;-16279.63;;;7.93;100.00
8705;BME280;4389;41.932;25.904;2024-02-26T02:54:39;-16279.22;;;7.92;100.00
8705;BME280;4389;41.932;25.904;2024-02-26T02:57:08;-16274.69;;;7.75;100.00
8705;BME280;4389;41.932;25.904;2024-02-26T02:59:35;-16275.75;;;7.79;100.00
8705;BME280;4389;41.932;25.904;2024-02-26T03:02:02;-16274.41;;;7.74;100.00
8705;BME280;4389;41.932;25.904;2024-02-26T03:04:29;-16271.34;;;7.62;100.00
8705;BME280;4389;41.932;25.904;2024-02-26T03:06:56;-16265.09;;;7.39;100.00
8705;BME280;4389;41.932;25.904;2024-02-26T03:09:23;-16264.56;;;7.37;100.00
8705;BME280;4389;41.932;25.904;2024-02-26T03:11:50;-16264.31;;;7.36;100.00
8705;BME280;4389;41.932;25.904;2024-02-26T03:14:18;-16262.69;;;7.30;100.00
8705;BME280;4389;41.932;25.904;2024-02-26T03:16:45;-16257.09;;;7.09;100.00
8705;BME280;4389;41.932;25.904;2024-02-26T03:19:14;-16256.97;;;7.08;100.00
8705;BME280;4389;41.932;25.904;2024-02-26T03:21:41;-16259.63;;;7.18;100.00
8705;BME280;4389;41.932;25.904;2024-02-26T03:24:08;-16255.78;;;7.04;100.00
8705;BME280;4389;41.932;25.904;2024-02-26T03:26:36;-16255.91;;;7.04;100.00
8705;BME280;4389;41.932;25.904;2024-02-26T03:29:02;-16257.78;;;7.11;100.00
8705;BME280;4389;41.932;25.904;2024-02-26T03:31:31;-16259.78;;;7.19;100.00
8705;BME280;4389;41.932;25.904;2024-02-26T03:33:58;-16256.31;;;7.06;100.00
8705;BME280;4389;41.932;25.904;2024-02-26T03:36:24;-16254.19;;;6.98;100.00
8705;BME280;4389;41.932;25.904;2024-02-26T03:38:52;-16254.44;;;6.99;100.00
8705;BME280;4389;41.932;25.904;2024-02-26T03:41:19;-16255.66;;;7.03;100.00
8705;BME280;4389;41.932;25.904;2024-02-26T03:43:45;-16260.03;;;7.20;100.00
8705;BME280;4389;41.932;25.904;2024-02-26T03:46:13;-16263.38;;;7.32;100.00
8705;BME280;4389;41.932;25.904;2024-02-26T03:48:41;-16266.44;;;7.44;100.00
8705;BME280;4389;41.932;25.904;2024-02-26T03:51:08;-16266.16;;;7.43;100.00
8705;BME280;4389;41.932;25.904;2024-02-26T03:53:35;-16265.63;;;7.41;100.00
8705;BME280;4389;41.932;25.904;2024-02-26T03:56:04;-16265.09;;;7.39;100.00
8705;BME280;4389;41.932;25.904;2024-02-26T03:58:30;-16259.09;;;7.16;100.00
8705;BME280;4389;41.932;25.904;2024-02-26T04:00:58;-16260.84;;;7.23;100.00
8705;BME280;4389;41.932;25.904;2024-02-26T04:03:25;-16261.91;;;7.27;100.00
8705;BME280;4389;41.932;25.904;2024-02-26T04:05:53;-16266.16;;;7.43;100.00
8705;BME280;4389;41.932;25.904;2024-02-26T04:08:20;-16266.56;;;7.44;100.00
8705;BME280;4389;41.932;25.904;2024-02-26T04:10:47;-16267.50;;;7.48;100.00
8705;BME280;4389;41.932;25.904;2024-02-26T04:13:14;-16266.81;;;7.45;100.00
8705;BME280;4389;41.932;25.904;2024-02-26T04:15:41;-16267.38;;;7.47;100.00
8705;BME280;4389;41.932;25.904;2024-02-26T04:18:08;-16266.16;;;7.43;100.00
8705;BME280;4389;41.932;25.904;2024-02-26T04:20:35;-16265.09;;;7.39;100.00
8705;BME280;4389;41.932;25.904;2024-02-26T04:23:04;-16265.38;;;7.40;100.00
8705;BME280;4389;41.932;25.904;2024-02-26T04:25:30;-16268.03;;;7.50;100.00
8705;BME280;4389;41.932;25.904;2024-02-26T04:27:57;-16264.03;;;7.35;100.00
8705;BME280;4389;41.932;25.904;2024-02-26T04:30:24;-16260.16;;;7.20;100.00
8705;BME280;4389;41.932;25.904;2024-02-26T04:32:51;-16262.03;;;7.27;100.00
8705;BME280;4389;41.932;25.904;2024-02-26T04:35:18;-16264.56;;;7.37;100.00
8705;BME280;4389;41.932;25.904;2024-02-26T04:37:45;-16266.03;;;7.42;100.00
8705;BME280;4389;41.932;25.904;2024-02-26T04:40:14;-16269.50;;;7.55;100.00
8705;BME280;4389;41.932;25.904;2024-02-26T04:42:40;-16270.16;;;7.58;100.00
8705;BME280;4389;41.932;25.904;2024-02-26T04:45:08;-16269.34;;;7.55;100.00
8705;BME280;4389;41.932;25.904;2024-02-26T04:47:35;-16269.09;;;7.54;100.00
8705;BME280;4389;41.932;25.904;2024-02-26T04:50:02;-16273.63;;;7.71;100.00
8705;BME280;4389;41.932;25.904;2024-02-26T04:52:28;-16273.50;;;7.70;100.00
8705;BME280;4389;41.932;25.904;2024-02-26T04:54:54;-16272.56;;;7.67;100.00
8705;BME280;4389;41.932;25.904;2024-02-26T04:57:23;-16273.22;;;7.69;100.00
8705;BME280;4389;41.932;25.904;2024-02-26T04:59:49;-16274.69;;;7.75;100.00
8705;BME280;4389;41.932;25.904;2024-02-26T05:02:16;-16274.16;;;7.73;100.00
8705;BME280;4389;41.932;25.904;2024-02-26T05:04:43;-16272.97;;;7.68;100.00
8705;BME280;4389;41.932;25.904;2024-02-26T05:07:10;-16276.03;;;7.80;100.00
8705;BME280;4389;41.932;25.904;2024-02-26T05:09:37;-16276.81;;;7.83;100.00
8705;BME280;4389;41.932;25.904;2024-02-26T05:12:05;-16279.09;;;7.91;100.00
8705;BME280;4389;41.932;25.904;2024-02-26T05:14:33;-16275.22;;;7.77;100.00
8705;BME280;4389;41.932;25.904;2024-02-26T05:17:00;-16275.34;;;7.77;100.00
8705;BME280;4389;41.932;25.904;2024-02-26T05:19:27;-16274.16;;;7.73;100.00
8705;BME280;4389;41.932;25.904;2024-02-26T05:21:54;-16271.22;;;7.62;100.00
8705;BME280;4389;41.932;25.904;2024-02-26T05:24:22;-16275.09;;;7.76;100.00
8705;BME280;4389;41.932;25.904;2024-02-26T05:26:49;-16279.47;;;7.93;100.00
8705;BME280;4389;41.932;25.904;2024-02-26T05:29:16;-16282.53;;;8.04;100.00
8705;BME280;4389;41.932;25.904;2024-02-26T05:31:44;-16283.34;;;8.07;100.00
8705;BME280;4389;41.932;25.904;2024-02-26T05:34:11;-16285.22;;;8.14;100.00
8705;BME280;4389;41.932;25.904;2024-02-26T05:36:38;-16282.16;;;8.03;100.00
8705;BME280;4389;41.932;25.904;2024-02-26T05:39:05;-16283.75;;;8.09;100.00
8705;BME280;4389;41.932;25.904;2024-02-26T05:41:32;-16287.06;;;8.21;100.00
8705;BME280;4389;41.932;25.904;2024-02-26T05:44:00;-16285.75;;;8.16;100.00
8705;BME280;4389;41.932;25.904;2024-02-26T05:46:27;-16290.94;;;8.36;100.00
8705;BME280;4389;41.932;25.904;2024-02-26T05:48:55;-16291.59;;;8.38;100.00
8705;BME280;4389;41.932;25.904;2024-02-26T05:51:22;-16292.00;;;8.40;100.00
8705;BME280;4389;41.932;25.904;2024-02-26T05:53:49;-16292.25;;;8.41;100.00
8705;BME280;4389;41.932;25.904;2024-02-26T05:56:20;-16293.59;;;8.46;100.00
8705;BME280;4389;41.932;25.904;2024-02-26T05:58:47;-16290.66;;;8.35;100.00
8705;BME280;4389;41.932;25.904;2024-02-26T06:01:15;-16296.00;;;8.55;100.00
8705;BME280;4389;41.932;25.904;2024-02-26T06:03:42;-16296.53;;;8.57;100.00
8705;BME280;4389;41.932;25.904;2024-02-26T06:06:11;-16292.53;;;8.42;100.00
8705;BME280;4389;41.932;25.904;2024-02-26T06:08:38;-16293.06;;;8.44;100.00
8705;BME280;4389;41.932;25.904;2024-02-26T06:11:05;-16294.66;;;8.50;100.00
8705;BME280;4389;41.932;25.904;2024-02-26T06:13:33;-16292.41;;;8.41;100.00
8705;BME280;4389;41.932;25.904;2024-02-26T06:16:00;-16293.34;;;8.45;100.00
8705;BME280;4389;41.932;25.904;2024-02-26T06:18:27;-16293.06;;;8.44;100.00
8705;BME280;4389;41.932;25.904;2024-02-26T06:20:55;-16290.81;;;8.35;100.00
8705;BME280;4389;41.932;25.904;2024-02-26T06:23:23;-16295.19;;;8.52;100.00
8705;BME280;4389;41.932;25.904;2024-02-26T06:25:50;-16298.66;;;8.65;100.00
8705;BME280;4389;41.932;25.904;2024-02-26T06:28:17;-16295.19;;;8.52;100.00
8705;BME280;4389;41.932;25.904;2024-02-26T06:30:44;-16294.78;;;8.50;100.00
8705;BME280;4389;41.932;25.904;2024-02-26T06:33:11;-16299.31;;;8.67;100.00
8705;BME280;4389;41.932;25.904;2024-02-26T06:35:39;-16300.78;;;8.73;100.00
8705;BME280;4389;41.932;25.904;2024-02-26T06:38:06;-16306.50;;;8.94;100.00
8705;BME280;4389;41.932;25.904;2024-02-26T06:40:35;-16312.38;;;9.16;100.00
8705;BME280;4389;41.932;25.904;2024-02-26T06:43:02;-16314.09;;;9.22;100.00
8705;BME280;4389;41.932;25.904;2024-02-26T06:45:29;-16318.22;;;9.38;100.00
8705;BME280;4389;41.932;25.904;2024-02-26T06:47:56;-16317.69;;;9.36;100.00
8705;BME280;4389;41.932;25.904;2024-02-26T06:50:23;-16323.69;;;9.58;100.00
8705;BME280;4389;41.932;25.904;2024-02-26T06:52:50;-16327.41;;;9.72;100.00
8705;BME280;4389;41.932;25.904;2024-02-26T06:55:17;-16330.88;;;9.85;100.00
8705;BME280;4389;41.932;25.904;2024-02-26T06:57:45;-16338.31;;;10.13;100.00
8705;BME280;4389;41.932;25.904;2024-02-26T07:00:13;-16341.78;;;10.26;100.00
8705;BME280;4389;41.932;25.904;2024-02-26T07:02:42;-16343.50;;;10.33;100.00
8705;BME280;4389;41.932;25.904;2024-02-26T07:05:09;-16340.44;;;10.21;100.00
8705;BME280;4389;41.932;25.904;2024-02-26T07:07:36;-16343.38;;;10.32;100.00
8705;BME280;4389;41.932;25.904;2024-02-26T07:10:04;-16347.63;;;10.48;100.00
8705;BME280;4389;41.932;25.904;2024-02-26T07:12:31;-16346.56;;;10.44;100.00
8705;BME280;4389;41.932;25.904;2024-02-26T07:15:00;-16342.03;;;10.27;100.00
8705;BME280;4389;41.932;25.904;2024-02-26T07:17:28;-16344.44;;;10.36;100.00
8705;BME280;4389;41.932;25.904;2024-02-26T07:19:54;-16349.63;;;10.56;100.00
8705;BME280;4389;41.932;25.904;2024-02-26T07:22:22;-16352.00;;;10.65;100.00
8705;BME280;4389;41.932;25.904;2024-02-26T07:24:49;-16349.75;;;10.56;100.00
8705;BME280;4389;41.932;25.904;2024-02-26T07:27:16;-16358.41;;;10.89;100.00
8705;BME280;4389;41.932;25.904;2024-02-26T07:29:44;-16363.84;;;11.09;100.00
8705;BME280;4389;41.932;25.904;2024-02-26T07:32:12;-16371.03;;;11.36;100.00
8705;BME280;4389;41.932;25.904;2024-02-26T07:34:39;-16366.25;;;11.18;100.00
8705;BME280;4389;41.932;25.904;2024-02-26T07:37:07;-16373.69;;;11.46;100.00
8705;BME280;4389;41.932;25.904;2024-02-26T07:39:34;-16370.75;;;11.35;100.00
8705;BME280;4389;41.932;25.904;2024-02-26T07:42:01;-16375.53;;;11.53;100.00
8705;BME280;4389;41.932;25.904;2024-02-26T07:44:28;-16373.69;;;11.46;100.00
8705;BME280;4389;41.932;25.904;2024-02-26T07:46:54;-16378.88;;;11.66;100.00
8705;BME280;4389;41.932;25.904;2024-02-26T07:49:23;-16385.66;;;11.91;100.00
8705;BME280;4389;41.932;25.904;2024-02-26T07:51:50;-16395.09;;;12.27;100.00
8705;BME280;4389;41.932;25.904;2024-02-26T07:54:16;-16400.00;;;12.45;100.00
8705;BME280;4389;41.932;25.904;2024-02-26T07:56:44;-16397.34;;;12.35;100.00
8705;BME280;4389;41.932;25.904;2024-02-26T07:59:11;-16404.78;;;12.63;100.00
8705;BME280;4389;41.932;25.904;2024-02-26T08:01:38;-16405.19;;;12.65;100.00
8705;BME280;4389;41.932;25.904;2024-02-26T08:04:07;-16396.81;;;12.33;100.00
8705;BME280;4389;41.932;25.904;2024-02-26T08:06:35;-16393.50;;;12.21;100.00
8705;BME280;4389;41.932;25.904;2024-02-26T08:09:02;-16389.38;;;12.05;100.00
8705;BME280;4389;41.932;25.904;2024-02-26T08:11:29;-16393.75;;;12.22;100.00
8705;BME280;4389;41.932;25.904;2024-02-26T08:13:56;-16397.22;;;12.35;100.00
8705;BME280;4389;41.932;25.904;2024-02-26T08:16:24;-16402.78;;;12.56;100.00
8705;BME280;4389;41.932;25.904;2024-02-26T08:18:51;-16397.22;;;12.35;100.00
8705;BME280;4389;41.932;25.904;2024-02-26T08:21:18;-16404.78;;;12.63;100.00
8705;BME280;4389;41.932;25.904;2024-02-26T08:23:46;-16407.84;;;12.75;100.00
8705;BME280;4389;41.932;25.904;2024-02-26T08:26:13;-16411.84;;;12.90;100.00
8705;BME280;4389;41.932;25.904;2024-02-26T08:28:40;-16407.19;;;12.72;100.00
8705;BME280;4389;41.932;25.904;2024-02-26T08:31:07;-16405.84;;;12.67;100.00
8705;BME280;4389;41.932;25.904;2024-02-26T08:33:34;-16400.00;;;12.45;100.00
8705;BME280;4389;41.932;25.904;2024-02-26T08:36:04;-16402.66;;;12.55;100.00
8705;BME280;4389;41.932;25.904;2024-02-26T08:38:32;-16400.13;;;12.46;100.00
8705;BME280;4389;41.932;25.904;2024-02-26T08:41:02;-16400.28;;;12.46;100.00
8705;BME280;4389;41.932;25.904;2024-02-26T08:43:29;-16397.34;;;12.35;100.00
8705;BME280;4389;41.932;25.904;2024-02-26T08:45:56;-16406.78;;;12.71;100.00
8705;BME280;4389;41.932;25.904;2024-02-26T08:48:23;-16406.91;;;12.71;100.00
8705;BME280;4389;41.932;25.904;2024-02-26T08:50:50;-16407.97;;;12.75;100.00
8705;BME280;4389;41.932;25.904;2024-02-26T08:53:17;-16410.91;;;12.86;100.00
8705;BME280;4389;41.932;25.904;2024-02-26T08:55:44;-16423.41;;;13.33;100.00
8705;BME280;4389;41.932;25.904;2024-02-26T08:58:12;-16430.03;;;13.58;99.95
8705;BME280;4389;41.932;25.904;2024-02-26T09:00:39;-16440.53;;;13.97;95.76
8705;BME280;4389;41.932;25.904;2024-02-26T09:03:06;-16437.34;;;13.85;96.53
8705;BME280;4389;41.932;25.904;2024-02-26T09:05:33;-16443.84;;;14.10;96.30
8705;BME280;4389;41.932;25.904;2024-02-26T09:08:00;-16460.03;;;14.71;93.27
8705;BME280;4389;41.932;25.904;2024-02-26T09:10:27;-16460.31;;;14.72;92.14
8705;BME280;4389;41.932;25.904;2024-02-26T09:12:54;-16462.69;;;14.81;90.89
8705;BME280;4389;41.932;25.904;2024-02-26T09:15:23;-16460.31;;;14.72;90.53
8705;BME280;4389;41.932;25.904;2024-02-26T09:17:50;-16459.78;;;14.70;92.66
8705;BME280;4389;41.932;25.904;2024-02-26T09:20:17;-16458.97;;;14.67;92.29
8705;BME280;4389;41.932;25.904;2024-02-26T09:22:45;-16469.31;;;15.06;90.58
8705;BME280;4389;41.932;25.904;2024-02-26T09:25:12;-16477.81;;;15.38;89.01
8705;BME280;4389;41.932;25.904;2024-02-26T09:27:41;-16484.97;;;15.65;86.15
8705;BME280;4389;41.932;25.904;2024-02-26T09:30:09;-16482.06;;;15.54;86.63
8705;BME280;4389;41.932;25.904;2024-02-26T09:32:37;-16488.44;;;15.78;84.92
8705;BME280;4389;41.932;25.904;2024-02-26T09:35:05;-16489.91;;;15.83;84.66
8705;BME280;4389;41.932;25.904;2024-02-26T09:37:33;-16493.47;;;15.97;84.32
8705;BME280;4389;41.932;25.904;2024-02-26T09:40:03;-16491.88;;;15.91;84.25
8705;BME280;4389;41.932;25.904;2024-02-26T09:42:31;-16493.22;;;15.96;83.11
8705;BME280;4389;41.932;25.904;2024-02-26T09:45:05;-16491.34;;;15.89;83.87
8705;BME280;4389;41.932;25.904;2024-02-26T09:47:37;-16492.69;;;15.94;82.02
8705;BME280;4389;41.932;25.904;2024-02-26T09:50:06;-16489.38;;;15.81;82.27
8705;BME280;4389;41.932;25.904;2024-02-26T09:52:38;-16492.16;;;15.92;81.39
8705;BME280;4389;41.932;25.904;2024-02-26T09:55:07;-16492.16;;;15.92;79.41
8705;BME280;4389;41.932;25.904;2024-02-26T09:57:36;-16486.84;;;15.72;82.31
8705;BME280;4389;41.932;25.904;2024-02-26T10:00:04;-16484.97;;;15.65;85.55
8705;BME280;4389;41.932;25.904;2024-02-26T10:02:35;-16479.16;;;15.43;89.70
8705;BME280;4389;41.932;25.904;2024-02-26T10:05:05;-16475.44;;;15.29;91.64
8705;BME280;4389;41.932;25.904;2024-02-26T10:07:34;-16472.25;;;15.17;92.13
8705;BME280;4389;41.932;25.904;2024-02-26T10:10:03;-16472.78;;;15.19;90.91
8705;BME280;4389;41.932;25.904;2024-02-26T10:12:30;-16475.16;;;15.28;90.79
8705;BME280;4389;41.932;25.904;2024-02-26T10:14:58;-16476.91;;;15.34;88.08
8705;BME280;4389;41.932;25.904;2024-02-26T10:17:25;-16478.09;;;15.39;89.05
8705;BME280;4389;41.932;25.904;2024-02-26T10:19:53;-16484.72;;;15.64;87.83
8705;BME280;4389;41.932;25.904;2024-02-26T10:22:23;-16486.31;;;15.70;86.50
8705;BME280;4389;41.932;25.904;2024-02-26T10:24:50;-16481.66;;;15.52;86.48
8705;BME280;4389;41.932;25.904;2024-02-26T10:27:18;-16482.59;;;15.56;85.90
8705;BME280;4389;41.932;25.904;2024-02-26T10:29:47;-16489.50;;;15.82;85.36
8705;BME280;4389;41.932;25.904;2024-02-26T10:32:14;-16496.38;;;16.08;81.89
8705;BME280;4389;41.932;25.904;2024-02-26T10:34:41;-16494.00;;;15.99;81.02
8705;BME280;4389;41.932;25.904;2024-02-26T10:37:09;-16497.97;;;16.14;81.45
8705;BME280;4389;41.932;25.904;2024-02-26T10:39:37;-16501.56;;;16.27;78.12
8705;BME280;4389;41.932;25.904;2024-02-26T10:42:04;-16509.13;;;16.56;77.33
8705;BME280;4389;41.932;25.904;2024-02-26T10:44:35;-16514.97;;;16.78;75.72
8705;BME280;4389;41.932;25.904;2024-02-26T10:47:02;-16522.38;;;17.06;72.82
8705;BME280;4389;41.932;25.904;2024-02-26T10:49:29;-16506.22;;;16.45;74.36
8705;BME280;4389;41.932;25.904;2024-02-26T10:51:57;-16505.16;;;16.41;75.74
8705;BME280;4389;41.932;25.904;2024-02-26T10:54:26;-16511.25;;;16.64;74.57
8705;BME280;4389;41.932;25.904;2024-02-26T10:56:56;-16521.06;;;17.01;72.73
8705;BME280;4389;41.932;25.904;2024-02-26T10:59:26;-16523.19;;;17.09;71.44
8705;BME280;4389;41.932;25.904;2024-02-26T11:01:54;-16514.44;;;16.76;73.01
8705;BME280;4389;41.932;25.904;2024-02-26T11:04:22;-16515.63;;;16.80;73.79
8705;BME280;4389;41.932;25.904;2024-02-26T11:06:50;-16523.19;;;17.09;72.04
8705;BME280;4389;41.932;25.904;2024-02-26T11:09:19;-16521.84;;;17.04;71.58
8705;BME280;4389;41.932;25.904;2024-02-26T11:11:46;-16516.28;;;16.83;73.53
8705;BME280;4389;41.932;25.904;2024-02-26T11:14:15;-16515.22;;;16.79;74.15
8705;BME280;4389;41.932;25.904;2024-02-26T11:16:43;-16510.59;;;16.61;74.38
8705;BME280;4389;41.932;25.904;2024-02-26T11:19:11;-16502.22;;;16.30;75.44
8705;BME280;4389;41.932;25.904;2024-02-26T11:21:39;-16504.34;;;16.38;76.15
8705;BME280;4389;41.932;25.904;2024-02-26T11:24:10;-16508.06;;;16.52;75.58
8705;BME280;4389;41.932;25.904;2024-02-26T11:26:42;-16519.19;;;16.94;73.26
8705;BME280;4389;41.932;25.904;2024-02-26T11:29:16;-16523.56;;;17.10;72.61
8705;BME280;4389;41.932;25.904;2024-02-26T11:31:44;-16527.41;;;17.25;70.77
8705;BME280;4389;41.932;25.904;2024-02-26T11:34:11;-16530.19;;;17.35;70.42
8705;BME280;4389;41.932;25.904;2024-02-26T11:36:38;-16529.00;;;17.31;69.21
8705;BME280;4389;41.932;25.904;2024-02-26T11:39:06;-16538.03;;;17.65;67.81
8705;BME280;4389;41.932;25.904;2024-02-26T11:41:33;-16543.59;;;17.86;66.98
8705;BME280;4389;41.932;25.904;2024-02-26T11:44:01;-16544.91;;;17.91;63.79
8705;BME280;4389;41.932;25.904;2024-02-26T11:46:31;-16548.88;;;18.06;61.82
8705;BME280;4389;41.932;25.904;2024-02-26T11:49:00;-16549.81;;;18.09;59.00
8705;BME280;4389;41.932;25.904;2024-02-26T11:51:32;-16549.53;;;18.08;59.41
8705;BME280;4389;41.932;25.904;2024-02-26T11:54:00;-16551.00;;;18.14;58.77
8705;BME280;4389;41.932;25.904;2024-02-26T11:56:27;-16549.16;;;18.07;59.66
8705;BME280;4389;41.932;25.904;2024-02-26T11:58:59;-16542.94;;;17.83;60.45
8705;BME280;4389;41.932;25.904;2024-02-26T12:01:44;-16545.69;;;17.94;59.97
8705;BME280;4389;41.932;25.904;2024-02-26T12:04:18;-16544.91;;;17.91;61.92
8705;BME280;4389;41.932;25.904;2024-02-26T12:06:47;-16548.63;;;18.05;60.99
8705;BME280;4389;41.932;25.904;2024-02-26T12:09:32;-16554.19;;;18.26;59.88
8705;BME280;4389;41.932;25.904;2024-02-26T12:12:01;-16562.41;;;18.57;59.20
8705;BME280;4389;41.932;25.904;2024-02-26T12:14:28;-16556.84;;;18.36;58.92
8705;BME280;4389;41.932;25.904;2024-02-26T12:16:56;-16561.06;;;18.52;58.74
8705;BME280;4389;41.932;25.904;2024-02-26T12:19:24;-16564.25;;;18.64;58.03
8705;BME280;4389;41.932;25.904;2024-02-26T12:21:52;-16563.84;;;18.62;58.08
8705;BME280;4389;41.932;25.904;2024-02-26T12:24:20;-16569.03;;;18.82;57.60
8705;BME280;4389;41.932;25.904;2024-02-26T12:26:47;-16573.53;;;18.98;56.94
8705;BME280;4389;41.932;25.904;2024-02-26T12:29:14;-16564.50;;;18.65;57.33
8705;BME280;4389;41.932;25.904;2024-02-26T12:31:41;-16563.84;;;18.62;57.90
8705;BME280;4389;41.932;25.904;2024-02-26T12:34:10;-16567.81;;;18.77;57.71
8705;BME280;4389;41.932;25.904;2024-02-26T12:36:39;-16573.78;;;18.99;56.55
8705;BME280;4389;41.932;25.904;2024-02-26T12:39:07;-16572.47;;;18.94;56.87
8705;BME280;4389;41.932;25.904;2024-02-26T12:41:35;-16574.19;;;19.01;56.20
8705;BME280;4389;41.932;25.904;2024-02-26T12:44:02;-16570.47;;;18.87;57.01
8705;BME280;4389;41.932;25.904;2024-02-26T12:46:29;-16573.53;;;18.98;56.71
8705;BME280;4389;41.932;25.904;2024-02-26T12:48:56;-16570.59;;;18.88;57.32
8705;BME280;4389;41.932;25.904;2024-02-26T12:51:26;-16571.53;;;18.91;56.99
8705;BME280;4389;41.932;25.904;2024-02-26T12:53:54;-16562.78;;;18.58;58.00
8705;BME280;4389;41.932;25.904;2024-02-26T12:56:22;-16556.56;;;18.35;59.25
8705;BME280;4389;41.932;25.904;2024-02-26T12:58:50;-16562.41;;;18.57;59.42
8705;BME280;4389;41.932;25.904;2024-02-26T13:01:21;-16562.41;;;18.57;59.61